sensor_id;sensor_type;location;lat;lon;timestamp;P1;durP1;ratioP1;P2;durP2;ratioP2
67065;SDS011;53978;43.846;25.952;2023-06-14T00:01:43;4.70;;;3.60;;
67065;SDS011;53978;43.846;25.952;2023-06-14T00:04:16;4.47;;;3.30;;
67065;SDS011;53978;43.846;25.952;2023-06-14T00:06:45;3.47;;;3.17;;
67065;SDS011;53978;43.846;25.952;2023-06-14T00:09:18;3.70;;;3.40;;
67065;SDS011;53978;43.846;25.952;2023-06-14T00:11:44;6.72;;;3.20;;
67065;SDS011;53978;43.846;25.952;2023-06-14T00:14:12;5.45;;;3.40;;
67065;SDS011;53978;43.846;25.952;2023-06-14T00:16:37;6.22;;;3.40;;
67065;SDS011;53978;43.846;25.952;2023-06-14T00:19:04;4.25;;;3.42;;
67065;SDS011;53978;43.846;25.952;2023-06-14T00:21:32;4.25;;;3.08;;
67065;SDS011;53978;43.846;25.952;2023-06-14T00:23:58;3.97;;;3.55;;
67065;SDS011;53978;43.846;25.952;2023-06-14T00:26:23;6.00;;;3.20;;
67065;SDS011;53978;43.846;25.952;2023-06-14T00:28:50;5.68;;;3.50;;
67065;SDS011;53978;43.846;25.952;2023-06-14T00:31:16;3.83;;;3.40;;
67065;SDS011;53978;43.846;25.952;2023-06-14T00:33:41;4.35;;;3.17;;
67065;SDS011;53978;43.846;25.952;2023-06-14T00:36:06;4.15;;;3.22;;
67065;SDS011;53978;43.846;25.952;2023-06-14T00:38:32;4.30;;;3.28;;
67065;SDS011;53978;43.846;25.952;2023-06-14T00:40:57;3.80;;;3.30;;
67065;SDS011;53978;43.846;25.952;2023-06-14T00:43:23;3.35;;;3.05;;
67065;SDS011;53978;43.846;25.952;2023-06-14T00:45:48;4.85;;;3.60;;
67065;SDS011;53978;43.846;25.952;2023-06-14T00:48:17;6.00;;;3.30;;
67065;SDS011;53978;43.846;25.952;2023-06-14T00:50:43;4.68;;;3.28;;
67065;SDS011;53978;43.846;25.952;2023-06-14T00:53:11;3.88;;;3.28;;
67065;SDS011;53978;43.846;25.952;2023-06-14T00:55:37;4.00;;;3.60;;
67065;SDS011;53978;43.846;25.952;2023-06-14T00:58:02;5.45;;;3.17;;
67065;SDS011;53978;43.846;25.952;2023-06-14T01:00:28;3.97;;;3.08;;
67065;SDS011;53978;43.846;25.952;2023-06-14T01:02:56;3.83;;;3.28;;
67065;SDS011;53978;43.846;25.952;2023-06-14T01:05:22;3.72;;;3.33;;
67065;SDS011;53978;43.846;25.952;2023-06-14T01:10:21;3.55;;;3.25;;
67065;SDS011;53978;43.846;25.952;2023-06-14T01:13:15;4.10;;;3.30;;
67065;SDS011;53978;43.846;25.952;2023-06-14T01:15:49;4.70;;;3.30;;
67065;SDS011;53978;43.846;25.952;2023-06-14T01:18:15;4.95;;;3.38;;
67065;SDS011;53978;43.846;25.952;2023-06-14T01:20:45;3.80;;;3.40;;
67065;SDS011;53978;43.846;25.952;2023-06-14T01:23:16;5.00;;;3.13;;
67065;SDS011;53978;43.846;25.952;2023-06-14T01:25:42;3.85;;;3.40;;
67065;SDS011;53978;43.846;25.952;2023-06-14T01:28:09;4.25;;;3.20;;
67065;SDS011;53978;43.846;25.952;2023-06-14T01:30:40;4.03;;;3.63;;
67065;SDS011;53978;43.846;25.952;2023-06-14T01:33:09;4.30;;;3.30;;
67065;SDS011;53978;43.846;25.952;2023-06-14T01:35:44;6.18;;;3.42;;
67065;SDS011;53978;43.846;25.952;2023-06-14T01:38:12;3.65;;;3.35;;
67065;SDS011;53978;43.846;25.952;2023-06-14T01:40:38;3.60;;;3.30;;
67065;SDS011;53978;43.846;25.952;2023-06-14T01:43:04;4.45;;;3.40;;
67065;SDS011;53978;43.846;25.952;2023-06-14T01:45:30;4.30;;;3.60;;
67065;SDS011;53978;43.846;25.952;2023-06-14T01:47:56;4.75;;;3.58;;
67065;SDS011;53978;43.846;25.952;2023-06-14T01:50:22;4.20;;;3.60;;
67065;SDS011;53978;43.846;25.952;2023-06-14T01:52:47;5.88;;;3.10;;
67065;SDS011;53978;43.846;25.952;2023-06-14T01:55:13;3.88;;;3.33;;
67065;SDS011;53978;43.846;25.952;2023-06-14T01:57:38;5.00;;;3.65;;
67065;SDS011;53978;43.846;25.952;2023-06-14T02:00:04;3.85;;;3.45;;
67065;SDS011;53978;43.846;25.952;2023-06-14T02:02:35;4.72;;;3.42;;
67065;SDS011;53978;43.846;25.952;2023-06-14T02:05:01;4.93;;;3.47;;
67065;SDS011;53978;43.846;25.952;2023-06-14T02:07:26;7.13;;;4.10;;
67065;SDS011;53978;43.846;25.952;2023-06-14T02:09:52;4.07;;;3.67;;
67065;SDS011;53978;43.846;25.952;2023-06-14T02:12:17;4.13;;;3.00;;
67065;SDS011;53978;43.846;25.952;2023-06-14T02:14:43;5.50;;;3.20;;
67065;SDS011;53978;43.846;25.952;2023-06-14T02:17:09;4.53;;;3.50;;
67065;SDS011;53978;43.846;25.952;2023-06-14T02:19:35;3.88;;;3.47;;
67065;SDS011;53978;43.846;25.952;2023-06-14T02:22:06;4.07;;;3.67;;
67065;SDS011;53978;43.846;25.952;2023-06-14T02:24:35;8.38;;;3.88;;
67065;SDS011;53978;43.846;25.952;2023-06-14T02:27:06;4.60;;;4.03;;
67065;SDS011;53978;43.846;25.952;2023-06-14T02:29:31;5.63;;;3.92;;
67065;SDS011;53978;43.846;25.952;2023-06-14T02:31:57;7.22;;;3.78;;
67065;SDS011;53978;43.846;25.952;2023-06-14T02:34:22;6.53;;;3.90;;
67065;SDS011;53978;43.846;25.952;2023-06-14T02:36:48;4.43;;;3.70;;
67065;SDS011;53978;43.846;25.952;2023-06-14T02:39:13;6.72;;;4.10;;
67065;SDS011;53978;43.846;25.952;2023-06-14T02:41:39;5.43;;;4.38;;
67065;SDS011;53978;43.846;25.952;2023-06-14T02:44:09;4.32;;;3.92;;
67065;SDS011;53978;43.846;25.952;2023-06-14T02:46:38;4.82;;;3.63;;
67065;SDS011;53978;43.846;25.952;2023-06-14T02:49:03;8.65;;;3.88;;
67065;SDS011;53978;43.846;25.952;2023-06-14T02:51:29;9.60;;;3.90;;
67065;SDS011;53978;43.846;25.952;2023-06-14T02:53:54;7.95;;;3.90;;
67065;SDS011;53978;43.846;25.952;2023-06-14T02:56:20;4.60;;;3.80;;
67065;SDS011;53978;43.846;25.952;2023-06-14T02:58:50;6.00;;;3.58;;
67065;SDS011;53978;43.846;25.952;2023-06-14T03:01:16;6.00;;;3.42;;
67065;SDS011;53978;43.846;25.952;2023-06-14T03:03:42;4.75;;;3.72;;
67065;SDS011;53978;43.846;25.952;2023-06-14T03:06:07;7.10;;;3.65;;
67065;SDS011;53978;43.846;25.952;2023-06-14T03:08:33;8.15;;;3.70;;
67065;SDS011;53978;43.846;25.952;2023-06-14T03:11:03;4.72;;;3.88;;
67065;SDS011;53978;43.846;25.952;2023-06-14T03:13:32;6.07;;;3.85;;
67065;SDS011;53978;43.846;25.952;2023-06-14T03:15:58;5.57;;;3.70;;
67065;SDS011;53978;43.846;25.952;2023-06-14T03:18:30;8.68;;;4.22;;
67065;SDS011;53978;43.846;25.952;2023-06-14T03:20:56;4.65;;;3.85;;
67065;SDS011;53978;43.846;25.952;2023-06-14T03:23:23;5.50;;;3.78;;
67065;SDS011;53978;43.846;25.952;2023-06-14T03:25:50;4.68;;;4.20;;
67065;SDS011;53978;43.846;25.952;2023-06-14T03:28:16;4.90;;;3.95;;
67065;SDS011;53978;43.846;25.952;2023-06-14T03:30:42;4.30;;;3.70;;
67065;SDS011;53978;43.846;25.952;2023-06-14T03:33:07;3.97;;;3.35;;
67065;SDS011;53978;43.846;25.952;2023-06-14T03:35:33;5.20;;;3.80;;
67065;SDS011;53978;43.846;25.952;2023-06-14T03:37:59;4.40;;;3.78;;
67065;SDS011;53978;43.846;25.952;2023-06-14T03:40:24;5.18;;;3.55;;
67065;SDS011;53978;43.846;25.952;2023-06-14T03:42:53;5.25;;;4.00;;
67065;SDS011;53978;43.846;25.952;2023-06-14T03:45:19;5.28;;;3.53;;
67065;SDS011;53978;43.846;25.952;2023-06-14T03:47:44;6.10;;;3.58;;
67065;SDS011;53978;43.846;25.952;2023-06-14T03:50:10;4.55;;;3.67;;
67065;SDS011;53978;43.846;25.952;2023-06-14T03:52:36;4.22;;;3.63;;
67065;SDS011;53978;43.846;25.952;2023-06-14T03:55:01;10.35;;;3.92;;
67065;SDS011;53978;43.846;25.952;2023-06-14T03:57:27;10.75;;;4.25;;
67065;SDS011;53978;43.846;25.952;2023-06-14T03:59:54;12.18;;;4.70;;
67065;SDS011;53978;43.846;25.952;2023-06-14T04:02:19;8.88;;;4.00;;
67065;SDS011;53978;43.846;25.952;2023-06-14T04:04:45;6.55;;;3.67;;
67065;SDS011;53978;43.846;25.952;2023-06-14T04:07:11;4.93;;;3.75;;
67065;SDS011;53978;43.846;25.952;2023-06-14T04:09:37;4.50;;;3.85;;
67065;SDS011;53978;43.846;25.952;2023-06-14T04:12:04;14.98;;;3.90;;
67065;SDS011;53978;43.846;25.952;2023-06-14T04:14:30;4.00;;;3.47;;
67065;SDS011;53978;43.846;25.952;2023-06-14T04:16:57;5.18;;;3.70;;
67065;SDS011;53978;43.846;25.952;2023-06-14T04:19:23;4.13;;;3.45;;
67065;SDS011;53978;43.846;25.952;2023-06-14T04:21:48;5.93;;;4.25;;
67065;SDS011;53978;43.846;25.952;2023-06-14T04:24:14;9.98;;;3.70;;
67065;SDS011;53978;43.846;25.952;2023-06-14T04:26:41;10.68;;;3.58;;
67065;SDS011;53978;43.846;25.952;2023-06-14T04:29:09;6.82;;;3.97;;
67065;SDS011;53978;43.846;25.952;2023-06-14T04:31:39;6.50;;;4.30;;
67065;SDS011;53978;43.846;25.952;2023-06-14T04:34:05;5.95;;;3.70;;
67065;SDS011;53978;43.846;25.952;2023-06-14T04:36:31;4.40;;;3.42;;
67065;SDS011;53978;43.846;25.952;2023-06-14T04:39:01;14.32;;;3.63;;
67065;SDS011;53978;43.846;25.952;2023-06-14T04:41:28;4.28;;;3.60;;
67065;SDS011;53978;43.846;25.952;2023-06-14T04:43:59;7.28;;;3.70;;
67065;SDS011;53978;43.846;25.952;2023-06-14T04:46:29;8.32;;;3.25;;
67065;SDS011;53978;43.846;25.952;2023-06-14T04:48:57;4.57;;;3.35;;
67065;SDS011;53978;43.846;25.952;2023-06-14T04:51:22;6.03;;;3.60;;
67065;SDS011;53978;43.846;25.952;2023-06-14T04:53:54;8.55;;;3.25;;
67065;SDS011;53978;43.846;25.952;2023-06-14T04:56:23;5.05;;;2.88;;
67065;SDS011;53978;43.846;25.952;2023-06-14T04:58:51;6.68;;;3.10;;
67065;SDS011;53978;43.846;25.952;2023-06-14T05:01:18;4.88;;;3.13;;
67065;SDS011;53978;43.846;25.952;2023-06-14T05:03:46;4.68;;;2.90;;
67065;SDS011;53978;43.846;25.952;2023-06-14T05:06:15;11.75;;;3.08;;
67065;SDS011;53978;43.846;25.952;2023-06-14T05:08:41;8.88;;;3.00;;
67065;SDS011;53978;43.846;25.952;2023-06-14T05:11:06;5.68;;;2.60;;
67065;SDS011;53978;43.846;25.952;2023-06-14T05:13:32;4.40;;;2.58;;
67065;SDS011;53978;43.846;25.952;2023-06-14T05:15:58;2.90;;;2.60;;
67065;SDS011;53978;43.846;25.952;2023-06-14T05:18:26;7.57;;;2.83;;
67065;SDS011;53978;43.846;25.952;2023-06-14T05:20:54;7.57;;;2.45;;
67065;SDS011;53978;43.846;25.952;2023-06-14T05:23:22;6.07;;;2.78;;
67065;SDS011;53978;43.846;25.952;2023-06-14T05:25:47;4.18;;;2.42;;
67065;SDS011;53978;43.846;25.952;2023-06-14T05:28:13;3.70;;;2.65;;
67065;SDS011;53978;43.846;25.952;2023-06-14T05:30:38;3.88;;;2.63;;
67065;SDS011;53978;43.846;25.952;2023-06-14T05:33:06;6.57;;;3.03;;
67065;SDS011;53978;43.846;25.952;2023-06-14T05:35:31;5.07;;;3.05;;
67065;SDS011;53978;43.846;25.952;2023-06-14T05:37:57;3.70;;;2.70;;
67065;SDS011;53978;43.846;25.952;2023-06-14T05:40:22;4.28;;;2.78;;
67065;SDS011;53978;43.846;25.952;2023-06-14T05:42:48;3.72;;;2.58;;
67065;SDS011;53978;43.846;25.952;2023-06-14T05:45:13;4.53;;;2.60;;
67065;SDS011;53978;43.846;25.952;2023-06-14T05:47:40;8.32;;;2.78;;
67065;SDS011;53978;43.846;25.952;2023-06-14T05:50:06;4.63;;;3.20;;
67065;SDS011;53978;43.846;25.952;2023-06-14T05:52:33;3.30;;;3.00;;
67065;SDS011;53978;43.846;25.952;2023-06-14T05:54:59;8.05;;;3.13;;
67065;SDS011;53978;43.846;25.952;2023-06-14T05:57:25;3.88;;;2.85;;
67065;SDS011;53978;43.846;25.952;2023-06-14T05:59:50;3.70;;;3.03;;
67065;SDS011;53978;43.846;25.952;2023-06-14T06:02:16;5.20;;;3.28;;
67065;SDS011;53978;43.846;25.952;2023-06-14T06:04:41;2.75;;;2.55;;
67065;SDS011;53978;43.846;25.952;2023-06-14T06:07:07;7.47;;;2.97;;
67065;SDS011;53978;43.846;25.952;2023-06-14T06:09:32;8.02;;;3.72;;
67065;SDS011;53978;43.846;25.952;2023-06-14T06:12:04;6.30;;;3.15;;
67065;SDS011;53978;43.846;25.952;2023-06-14T06:14:31;6.60;;;3.42;;
67065;SDS011;53978;43.846;25.952;2023-06-14T06:16:57;15.73;;;5.30;;
67065;SDS011;53978;43.846;25.952;2023-06-14T06:19:25;22.20;;;5.80;;
67065;SDS011;53978;43.846;25.952;2023-06-14T06:21:54;10.60;;;4.65;;
67065;SDS011;53978;43.846;25.952;2023-06-14T06:24:19;19.23;;;6.65;;
67065;SDS011;53978;43.846;25.952;2023-06-14T06:26:45;9.65;;;5.15;;
67065;SDS011;53978;43.846;25.952;2023-06-14T06:29:10;3.60;;;3.30;;
67065;SDS011;53978;43.846;25.952;2023-06-14T06:31:38;11.13;;;5.00;;
67065;SDS011;53978;43.846;25.952;2023-06-14T06:34:06;4.75;;;3.70;;
67065;SDS011;53978;43.846;25.952;2023-06-14T06:36:31;5.28;;;3.58;;
67065;SDS011;53978;43.846;25.952;2023-06-14T06:38:56;13.55;;;5.10;;
67065;SDS011;53978;43.846;25.952;2023-06-14T06:41:22;24.58;;;6.22;;
67065;SDS011;53978;43.846;25.952;2023-06-14T06:43:47;9.00;;;3.72;;
67065;SDS011;53978;43.846;25.952;2023-06-14T06:46:13;11.95;;;3.67;;
67065;SDS011;53978;43.846;25.952;2023-06-14T06:48:38;8.13;;;4.00;;
67065;SDS011;53978;43.846;25.952;2023-06-14T06:51:06;13.07;;;4.25;;
67065;SDS011;53978;43.846;25.952;2023-06-14T06:53:31;16.08;;;7.68;;
67065;SDS011;53978;43.846;25.952;2023-06-14T06:55:57;13.68;;;5.18;;
67065;SDS011;53978;43.846;25.952;2023-06-14T06:58:22;4.80;;;3.28;;
67065;SDS011;53978;43.846;25.952;2023-06-14T07:00:48;12.35;;;3.88;;
67065;SDS011;53978;43.846;25.952;2023-06-14T07:03:13;6.40;;;3.70;;
67065;SDS011;53978;43.846;25.952;2023-06-14T07:05:39;7.82;;;3.40;;
67065;SDS011;53978;43.846;25.952;2023-06-14T07:08:04;13.05;;;3.85;;
67065;SDS011;53978;43.846;25.952;2023-06-14T07:10:30;8.02;;;3.63;;
67065;SDS011;53978;43.846;25.952;2023-06-14T07:12:56;20.67;;;7.75;;
67065;SDS011;53978;43.846;25.952;2023-06-14T07:15:21;7.20;;;4.85;;
67065;SDS011;53978;43.846;25.952;2023-06-14T07:17:47;6.32;;;3.92;;
67065;SDS011;53978;43.846;25.952;2023-06-14T07:20:12;4.15;;;3.60;;
67065;SDS011;53978;43.846;25.952;2023-06-14T07:22:41;15.45;;;4.72;;
67065;SDS011;53978;43.846;25.952;2023-06-14T07:25:10;5.97;;;3.65;;
67065;SDS011;53978;43.846;25.952;2023-06-14T07:27:42;7.22;;;3.90;;
67065;SDS011;53978;43.846;25.952;2023-06-14T07:30:08;6.43;;;2.95;;
67065;SDS011;53978;43.846;25.952;2023-06-14T07:32:34;6.57;;;3.78;;
67065;SDS011;53978;43.846;25.952;2023-06-14T07:35:00;8.57;;;3.50;;
67065;SDS011;53978;43.846;25.952;2023-06-14T07:37:25;4.72;;;2.42;;
67065;SDS011;53978;43.846;25.952;2023-06-14T07:39:51;10.35;;;3.65;;
67065;SDS011;53978;43.846;25.952;2023-06-14T07:42:18;5.72;;;2.92;;
67065;SDS011;53978;43.846;25.952;2023-06-14T07:44:46;2.55;;;2.35;;
67065;SDS011;53978;43.846;25.952;2023-06-14T07:47:17;5.15;;;2.90;;
67065;SDS011;53978;43.846;25.952;2023-06-14T07:49:45;3.08;;;2.72;;
67065;SDS011;53978;43.846;25.952;2023-06-14T07:52:13;7.05;;;3.67;;
67065;SDS011;53978;43.846;25.952;2023-06-14T07:54:41;5.97;;;2.90;;
67065;SDS011;53978;43.846;25.952;2023-06-14T07:57:06;10.30;;;3.92;;
67065;SDS011;53978;43.846;25.952;2023-06-14T07:59:32;7.45;;;3.45;;
67065;SDS011;53978;43.846;25.952;2023-06-14T08:01:58;6.32;;;3.60;;
67065;SDS011;53978;43.846;25.952;2023-06-14T08:04:24;6.45;;;2.88;;
67065;SDS011;53978;43.846;25.952;2023-06-14T08:06:50;5.70;;;3.10;;
67065;SDS011;53978;43.846;25.952;2023-06-14T08:09:15;3.33;;;3.03;;
67065;SDS011;53978;43.846;25.952;2023-06-14T08:11:41;7.53;;;3.00;;
67065;SDS011;53978;43.846;25.952;2023-06-14T08:14:07;18.15;;;4.05;;
67065;SDS011;53978;43.846;25.952;2023-06-14T08:16:33;5.22;;;2.97;;
67065;SDS011;53978;43.846;25.952;2023-06-14T08:18:58;6.57;;;2.85;;
67065;SDS011;53978;43.846;25.952;2023-06-14T08:21:23;4.78;;;3.58;;
67065;SDS011;53978;43.846;25.952;2023-06-14T08:23:51;3.88;;;3.40;;
67065;SDS011;53978;43.846;25.952;2023-06-14T08:26:18;6.70;;;3.00;;
67065;SDS011;53978;43.846;25.952;2023-06-14T08:28:46;3.38;;;2.78;;
67065;SDS011;53978;43.846;25.952;2023-06-14T08:31:12;4.28;;;2.90;;
67065;SDS011;53978;43.846;25.952;2023-06-14T08:33:37;6.78;;;3.10;;
67065;SDS011;53978;43.846;25.952;2023-06-14T08:36:04;5.38;;;3.25;;
67065;SDS011;53978;43.846;25.952;2023-06-14T08:38:32;3.60;;;3.03;;
67065;SDS011;53978;43.846;25.952;2023-06-14T08:40:58;5.15;;;2.80;;
67065;SDS011;53978;43.846;25.952;2023-06-14T08:43:24;8.43;;;2.95;;
67065;SDS011;53978;43.846;25.952;2023-06-14T08:45:51;6.65;;;2.97;;
67065;SDS011;53978;43.846;25.952;2023-06-14T08:48:19;3.80;;;3.35;;
67065;SDS011;53978;43.846;25.952;2023-06-14T08:50:45;3.15;;;2.85;;
67065;SDS011;53978;43.846;25.952;2023-06-14T08:53:12;4.85;;;3.10;;
67065;SDS011;53978;43.846;25.952;2023-06-14T08:55:44;4.38;;;3.15;;
67065;SDS011;53978;43.846;25.952;2023-06-14T08:58:10;6.43;;;3.10;;
67065;SDS011;53978;43.846;25.952;2023-06-14T09:00:39;4.20;;;2.58;;
67065;SDS011;53978;43.846;25.952;2023-06-14T09:03:06;2.60;;;2.40;;
67065;SDS011;53978;43.846;25.952;2023-06-14T09:05:38;4.00;;;2.83;;
67065;SDS011;53978;43.846;25.952;2023-06-14T09:08:03;10.35;;;3.10;;
67065;SDS011;53978;43.846;25.952;2023-06-14T09:10:30;4.70;;;2.60;;
67065;SDS011;53978;43.846;25.952;2023-06-14T09:12:58;5.07;;;2.42;;
67065;SDS011;53978;43.846;25.952;2023-06-14T09:15:25;5.28;;;2.50;;
67065;SDS011;53978;43.846;25.952;2023-06-14T09:17:51;4.55;;;2.47;;
67065;SDS011;53978;43.846;25.952;2023-06-14T09:20:16;5.47;;;2.60;;
67065;SDS011;53978;43.846;25.952;2023-06-14T09:22:43;6.20;;;2.15;;
67065;SDS011;53978;43.846;25.952;2023-06-14T09:25:10;3.70;;;2.42;;
67065;SDS011;53978;43.846;25.952;2023-06-14T09:27:37;2.95;;;2.40;;
67065;SDS011;53978;43.846;25.952;2023-06-14T09:30:05;5.40;;;2.28;;
67065;SDS011;53978;43.846;25.952;2023-06-14T09:32:35;5.18;;;2.38;;
67065;SDS011;53978;43.846;25.952;2023-06-14T09:35:02;3.75;;;2.03;;
67065;SDS011;53978;43.846;25.952;2023-06-14T09:37:30;2.58;;;2.13;;
67065;SDS011;53978;43.846;25.952;2023-06-14T09:39:56;3.72;;;2.17;;
67065;SDS011;53978;43.846;25.952;2023-06-14T09:42:22;2.60;;;1.98;;
67065;SDS011;53978;43.846;25.952;2023-06-14T09:44:51;3.03;;;1.92;;
67065;SDS011;53978;43.846;25.952;2023-06-14T09:47:18;2.22;;;2.03;;
67065;SDS011;53978;43.846;25.952;2023-06-14T09:49:44;2.08;;;1.90;;
67065;SDS011;53978;43.846;25.952;2023-06-14T09:52:16;3.10;;;1.83;;
67065;SDS011;53978;43.846;25.952;2023-06-14T09:54:46;11.30;;;2.75;;
67065;SDS011;53978;43.846;25.952;2023-06-14T09:57:16;4.78;;;2.17;;
67065;SDS011;53978;43.846;25.952;2023-06-14T09:59:46;4.00;;;2.00;;
67065;SDS011;53978;43.846;25.952;2023-06-14T10:02:22;5.40;;;2.17;;
67065;SDS011;53978;43.846;25.952;2023-06-14T10:05:24;2.20;;;2.00;;
67065;SDS011;53978;43.846;25.952;2023-06-14T10:07:44;4.80;;;2.13;;
67065;SDS011;53978;43.846;25.952;2023-06-14T10:10:14;3.35;;;2.10;;
67065;SDS011;53978;43.846;25.952;2023-06-14T10:12:40;5.20;;;2.10;;
67065;SDS011;53978;43.846;25.952;2023-06-14T10:15:07;3.05;;;1.95;;
67065;SDS011;53978;43.846;25.952;2023-06-14T10:23:19;2.90;;;2.08;;
67065;SDS011;53978;43.846;25.952;2023-06-14T10:25:49;2.97;;;2.35;;
67065;SDS011;53978;43.846;25.952;2023-06-14T10:28:16;2.22;;;1.90;;
67065;SDS011;53978;43.846;25.952;2023-06-14T10:33:40;3.33;;;2.15;;
67065;SDS011;53978;43.846;25.952;2023-06-14T10:38:58;2.20;;;2.00;;
67065;SDS011;53978;43.846;25.952;2023-06-14T10:41:32;3.63;;;2.00;;
67065;SDS011;53978;43.846;25.952;2023-06-14T10:46:45;4.70;;;2.05;;
67065;SDS011;53978;43.846;25.952;2023-06-14T10:49:12;3.38;;;2.00;;
67065;SDS011;53978;43.846;25.952;2023-06-14T10:51:38;4.45;;;2.10;;
67065;SDS011;53978;43.846;25.952;2023-06-14T10:54:17;4.25;;;2.03;;
67065;SDS011;53978;43.846;25.952;2023-06-14T10:56:49;2.90;;;1.80;;
67065;SDS011;53978;43.846;25.952;2023-06-14T10:59:16;2.38;;;2.17;;
67065;SDS011;53978;43.846;25.952;2023-06-14T11:04:31;4.18;;;2.13;;
67065;SDS011;53978;43.846;25.952;2023-06-14T11:13:04;3.65;;;2.55;;
67065;SDS011;53978;43.846;25.952;2023-06-14T11:15:30;2.50;;;2.30;;
67065;SDS011;53978;43.846;25.952;2023-06-14T11:17:57;2.83;;;2.10;;
67065;SDS011;53978;43.846;25.952;2023-06-14T11:20:26;2.25;;;1.92;;
67065;SDS011;53978;43.846;25.952;2023-06-14T11:22:54;5.90;;;2.47;;
67065;SDS011;53978;43.846;25.952;2023-06-14T11:25:20;2.38;;;2.17;;
67065;SDS011;53978;43.846;25.952;2023-06-14T11:27:45;5.50;;;2.10;;
67065;SDS011;53978;43.846;25.952;2023-06-14T11:30:12;5.00;;;2.20;;
67065;SDS011;53978;43.846;25.952;2023-06-14T11:32:38;4.13;;;2.13;;
67065;SDS011;53978;43.846;25.952;2023-06-14T11:35:04;2.67;;;2.20;;
67065;SDS011;53978;43.846;25.952;2023-06-14T11:37:30;2.03;;;1.90;;
67065;SDS011;53978;43.846;25.952;2023-06-14T11:39:58;3.78;;;2.38;;
67065;SDS011;53978;43.846;25.952;2023-06-14T11:42:24;3.08;;;2.33;;
67065;SDS011;53978;43.846;25.952;2023-06-14T11:44:51;3.10;;;2.13;;
67065;SDS011;53978;43.846;25.952;2023-06-14T11:47:17;3.15;;;1.77;;
67065;SDS011;53978;43.846;25.952;2023-06-14T11:49:42;2.60;;;2.17;;
67065;SDS011;53978;43.846;25.952;2023-06-14T11:52:08;3.78;;;2.22;;
67065;SDS011;53978;43.846;25.952;2023-06-14T11:54:33;2.30;;;2.10;;
67065;SDS011;53978;43.846;25.952;2023-06-14T11:56:59;3.03;;;2.15;;
67065;SDS011;53978;43.846;25.952;2023-06-14T11:59:25;3.20;;;2.20;;
67065;SDS011;53978;43.846;25.952;2023-06-14T12:01:50;6.65;;;2.40;;
67065;SDS011;53978;43.846;25.952;2023-06-14T12:04:31;3.08;;;1.80;;
67065;SDS011;53978;43.846;25.952;2023-06-14T12:06:56;2.60;;;2.05;;
67065;SDS011;53978;43.846;25.952;2023-06-14T12:09:22;2.50;;;2.30;;
67065;SDS011;53978;43.846;25.952;2023-06-14T12:11:50;3.90;;;2.22;;
67065;SDS011;53978;43.846;25.952;2023-06-14T12:14:16;2.50;;;2.13;;
67065;SDS011;53978;43.846;25.952;2023-06-14T12:16:41;2.25;;;2.05;;
67065;SDS011;53978;43.846;25.952;2023-06-14T12:19:08;3.72;;;2.20;;
67065;SDS011;53978;43.846;25.952;2023-06-14T12:21:37;5.68;;;2.28;;
67065;SDS011;53978;43.846;25.952;2023-06-14T12:24:03;3.15;;;2.20;;
67065;SDS011;53978;43.846;25.952;2023-06-14T12:26:31;3.92;;;2.20;;
67065;SDS011;53978;43.846;25.952;2023-06-14T12:28:57;2.60;;;2.08;;
67065;SDS011;53978;43.846;25.952;2023-06-14T12:31:22;3.15;;;2.22;;
67065;SDS011;53978;43.846;25.952;2023-06-14T12:33:51;2.63;;;2.00;;
67065;SDS011;53978;43.846;25.952;2023-06-14T12:36:17;4.05;;;2.20;;
67065;SDS011;53978;43.846;25.952;2023-06-14T12:38:42;2.95;;;2.53;;
67065;SDS011;53978;43.846;25.952;2023-06-14T12:41:08;4.68;;;2.20;;
67065;SDS011;53978;43.846;25.952;2023-06-14T12:43:33;2.92;;;2.33;;
67065;SDS011;53978;43.846;25.952;2023-06-14T12:45:59;2.50;;;2.30;;
67065;SDS011;53978;43.846;25.952;2023-06-14T12:48:25;2.33;;;2.13;;
67065;SDS011;53978;43.846;25.952;2023-06-14T12:50:52;3.10;;;2.35;;
67065;SDS011;53978;43.846;25.952;2023-06-14T12:53:18;3.35;;;2.30;;
67065;SDS011;53978;43.846;25.952;2023-06-14T12:55:44;2.72;;;2.40;;
67065;SDS011;53978;43.846;25.952;2023-06-14T12:58:09;4.10;;;2.38;;
67065;SDS011;53978;43.846;25.952;2023-06-14T13:00:37;3.72;;;2.13;;
67065;SDS011;53978;43.846;25.952;2023-06-14T13:03:03;3.92;;;2.10;;
67065;SDS011;53978;43.846;25.952;2023-06-14T13:05:28;3.88;;;2.28;;
67065;SDS011;53978;43.846;25.952;2023-06-14T13:07:56;3.80;;;2.58;;
67065;SDS011;53978;43.846;25.952;2023-06-14T13:10:21;3.42;;;2.20;;
67065;SDS011;53978;43.846;25.952;2023-06-14T13:12:46;3.58;;;2.28;;
67065;SDS011;53978;43.846;25.952;2023-06-14T13:15:12;4.63;;;2.20;;
67065;SDS011;53978;43.846;25.952;2023-06-14T13:17:37;4.10;;;2.25;;
67065;SDS011;53978;43.846;25.952;2023-06-14T13:20:07;3.00;;;2.20;;
67065;SDS011;53978;43.846;25.952;2023-06-14T13:22:35;6.30;;;2.25;;
67065;SDS011;53978;43.846;25.952;2023-06-14T13:25:01;2.67;;;2.35;;
67065;SDS011;53978;43.846;25.952;2023-06-14T13:27:27;2.90;;;2.22;;
67065;SDS011;53978;43.846;25.952;2023-06-14T13:29:53;2.80;;;2.30;;
67065;SDS011;53978;43.846;25.952;2023-06-14T13:32:20;3.40;;;2.40;;
67065;SDS011;53978;43.846;25.952;2023-06-14T13:34:46;2.65;;;2.22;;
67065;SDS011;53978;43.846;25.952;2023-06-14T13:37:11;2.35;;;2.15;;
67065;SDS011;53978;43.846;25.952;2023-06-14T13:39:36;2.80;;;2.30;;
67065;SDS011;53978;43.846;25.952;2023-06-14T13:42:02;2.28;;;1.92;;
67065;SDS011;53978;43.846;25.952;2023-06-14T13:44:28;2.50;;;2.20;;
67065;SDS011;53978;43.846;25.952;2023-06-14T13:46:56;4.82;;;2.30;;
67065;SDS011;53978;43.846;25.952;2023-06-14T13:49:21;5.07;;;2.10;;
67065;SDS011;53978;43.846;25.952;2023-06-14T13:51:47;2.45;;;2.13;;
67065;SDS011;53978;43.846;25.952;2023-06-14T13:54:13;2.17;;;1.98;;
67065;SDS011;53978;43.846;25.952;2023-06-14T13:56:40;1.88;;;1.70;;
67065;SDS011;53978;43.846;25.952;2023-06-14T13:59:05;4.95;;;2.13;;
67065;SDS011;53978;43.846;25.952;2023-06-14T14:01:31;3.50;;;2.13;;
67065;SDS011;53978;43.846;25.952;2023-06-14T14:03:56;2.88;;;1.85;;
67065;SDS011;53978;43.846;25.952;2023-06-14T14:06:23;2.30;;;2.10;;
67065;SDS011;53978;43.846;25.952;2023-06-14T14:08:51;3.25;;;2.10;;
67065;SDS011;53978;43.846;25.952;2023-06-14T14:11:20;5.63;;;1.70;;
67065;SDS011;53978;43.846;25.952;2023-06-14T14:13:46;2.78;;;1.98;;
67065;SDS011;53978;43.846;25.952;2023-06-14T14:16:12;3.60;;;1.98;;
67065;SDS011;53978;43.846;25.952;2023-06-14T14:18:38;2.10;;;1.90;;
67065;SDS011;53978;43.846;25.952;2023-06-14T14:21:03;2.35;;;2.03;;
67065;SDS011;53978;43.846;25.952;2023-06-14T14:23:29;3.97;;;2.00;;
67065;SDS011;53978;43.846;25.952;2023-06-14T14:25:54;2.20;;;1.95;;
67065;SDS011;53978;43.846;25.952;2023-06-14T14:28:20;2.08;;;1.88;;
67065;SDS011;53978;43.846;25.952;2023-06-14T14:30:46;2.47;;;2.13;;
67065;SDS011;53978;43.846;25.952;2023-06-14T14:33:12;3.13;;;2.17;;
67065;SDS011;53978;43.846;25.952;2023-06-14T14:35:44;2.45;;;2.25;;
67065;SDS011;53978;43.846;25.952;2023-06-14T14:38:15;2.80;;;2.30;;
67065;SDS011;53978;43.846;25.952;2023-06-14T14:40:41;6.07;;;3.10;;
67065;SDS011;53978;43.846;25.952;2023-06-14T14:43:09;2.47;;;2.28;;
67065;SDS011;53978;43.846;25.952;2023-06-14T14:45:35;3.33;;;2.25;;
67065;SDS011;53978;43.846;25.952;2023-06-14T14:48:01;2.72;;;2.00;;
67065;SDS011;53978;43.846;25.952;2023-06-14T14:50:27;4.60;;;2.35;;
67065;SDS011;53978;43.846;25.952;2023-06-14T14:52:53;4.30;;;2.45;;
67065;SDS011;53978;43.846;25.952;2023-06-14T14:55:18;10.05;;;4.07;;
67065;SDS011;53978;43.846;25.952;2023-06-14T14:57:46;10.35;;;5.60;;